Time;durP1;ratioP1;P1;durP2;ratioP2;P2;SDS_P1;SDS_P2;PMS_P1;PMS_P2;Temp;Humidity;BMP_temperature;BMP_pressure;BME280_temperature;BME280_humidity;BME280_pressure;Samples;Min_cycle;Max_cycle;Signal;HPM_P1;HPM_P2
2023/08/25 00:01:39;;;;;;;8.85;3.65;;;16.90;99.90;;;;;;5095272;28;20101;-81
2023/08/25 00:04:06;;;;;;;7.55;2.95;;;16.90;99.90;;;;;;5082293;28;20119;-79
2023/08/25 00:06:32;;;;;;;8.07;3.30;;;16.90;99.90;;;;;;5074918;28;20466;-79
2023/08/25 00:08:59;;;;;;;10.15;3.50;;;16.90;99.90;;;;;;5088118;28;20072;-79
2023/08/25 00:11:26;;;;;;;12.07;3.50;;;16.90;99.90;;;;;;5080681;28;20044;-80
2023/08/25 00:13:52;;;;;;;7.15;3.03;;;16.90;99.90;;;;;;5085368;28;20080;-81
2023/08/25 00:16:19;;;;;;;8.48;3.28;;;16.90;99.90;;;;;;5092379;28;20044;-81
2023/08/25 00:18:46;;;;;;;9.32;3.33;;;16.90;99.90;;;;;;5096281;28;20075;-79
2023/08/25 00:21:14;;;;;;;9.43;3.90;;;16.90;99.90;;;;;;5095578;28;20036;-79
2023/08/25 00:23:41;;;;;;;9.82;3.03;;;17.00;99.90;;;;;;5095543;28;20457;-79
2023/08/25 00:26:08;;;;;;;9.88;3.65;;;17.00;99.90;;;;;;5093732;28;20050;-80
2023/08/25 00:28:35;;;;;;;8.35;2.80;;;17.00;99.90;;;;;;5088318;28;20051;-80
2023/08/25 00:31:02;;;;;;;7.70;2.85;;;17.00;99.90;;;;;;5094784;28;20044;-80
2023/08/25 00:33:29;;;;;;;7.60;3.13;;;17.00;99.90;;;;;;5093781;28;20105;-79
2023/08/25 00:35:55;;;;;;;6.60;2.92;;;17.00;99.90;;;;;;5089869;28;20090;-79
2023/08/25 00:38:28;;;;;;;12.98;3.30;;;17.00;99.90;;;;;;5075339;28;20048;-80
2023/08/25 00:40:58;;;;;;;9.13;2.90;;;17.00;99.90;;;;;;5093921;28;20411;-79
2023/08/25 00:43:26;;;;;;;8.63;3.13;;;17.00;99.90;;;;;;5095092;28;20060;-81
2023/08/25 00:45:53;;;;;;;7.72;3.05;;;17.00;99.90;;;;;;5090496;28;20135;-80
2023/08/25 00:48:20;;;;;;;9.25;3.50;;;16.90;99.90;;;;;;5074141;28;20044;-80
2023/08/25 00:50:46;;;;;;;8.63;3.65;;;16.90;99.90;;;;;;5090053;28;20462;-80
2023/08/25 00:53:14;;;;;;;7.55;3.58;;;16.90;99.90;;;;;;5076659;28;20043;-79
2023/08/25 00:55:41;;;;;;;8.23;3.10;;;16.80;99.90;;;;;;5095101;28;20429;-81
2023/08/25 00:58:09;;;;;;;9.60;3.33;;;16.80;99.90;;;;;;5088835;28;20048;-81
2023/08/25 01:00:36;;;;;;;7.72;3.40;;;16.80;99.90;;;;;;5086065;28;20488;-80
2023/08/25 01:03:02;;;;;;;7.40;3.03;;;16.70;99.90;;;;;;5074737;28;20045;-81
2023/08/25 01:05:29;;;;;;;8.68;3.22;;;16.70;99.90;;;;;;5074091;28;20119;-81
2023/08/25 01:07:57;;;;;;;8.10;2.95;;;16.70;99.90;;;;;;5073388;28;20040;-81
2023/08/25 01:10:24;;;;;;;7.45;3.13;;;16.70;99.90;;;;;;5084133;28;20123;-81
2023/08/25 01:12:51;;;;;;;6.70;2.75;;;16.60;99.90;;;;;;5087121;28;20106;-80
2023/08/25 01:15:18;;;;;;;7.38;3.47;;;16.60;99.90;;;;;;5085983;28;20056;-80
2023/08/25 01:17:45;;;;;;;7.63;3.00;;;16.50;99.90;;;;;;5088670;28;20067;-80
2023/08/25 01:20:14;;;;;;;6.63;3.03;;;16.50;99.90;;;;;;5083891;28;20519;-80
2023/08/25 01:22:40;;;;;;;7.97;3.17;;;16.50;99.90;;;;;;5088099;28;20050;-80
2023/08/25 01:25:07;;;;;;;7.78;3.28;;;16.50;99.90;;;;;;5088810;28;20375;-78
2023/08/25 01:27:36;;;;;;;7.10;2.90;;;16.40;99.90;;;;;;5074155;28;20097;-80
2023/08/25 01:30:03;;;;;;;9.30;3.63;;;16.40;99.90;;;;;;5087879;28;20126;-80
2023/08/25 01:32:30;;;;;;;11.27;2.95;;;16.40;99.90;;;;;;5079602;28;20040;-78
2023/08/25 01:34:57;;;;;;;7.88;2.80;;;16.40;99.90;;;;;;5083942;28;20418;-80
2023/08/25 01:37:23;;;;;;;9.27;3.28;;;16.40;99.90;;;;;;5088622;28;20519;-79
2023/08/25 01:39:50;;;;;;;10.88;2.95;;;16.40;99.90;;;;;;5083891;28;20036;-80
2023/08/25 01:42:17;;;;;;;8.38;3.30;;;16.30;99.90;;;;;;5094344;28;20101;-79
2023/08/25 01:44:43;;;;;;;8.32;3.00;;;16.30;99.90;;;;;;5091635;28;20044;-81
2023/08/25 01:47:10;;;;;;;8.48;2.58;;;16.30;99.90;;;;;;5092639;28;20439;-80
2023/08/25 01:49:39;;;;;;;8.30;2.88;;;16.30;99.90;;;;;;5083733;28;20106;-79
2023/08/25 01:52:07;;;;;;;6.40;2.70;;;16.30;99.90;;;;;;5056034;28;20132;-80
2023/08/25 01:54:34;;;;;;;9.32;3.03;;;16.20;99.90;;;;;;5034607;28;20064;-80
2023/08/25 01:57:00;;;;;;;6.88;2.75;;;16.20;99.90;;;;;;5040145;28;20430;-80
2023/08/25 01:59:27;;;;;;;5.57;2.50;;;16.20;99.90;;;;;;5042171;28;20045;-80
2023/08/25 02:01:54;;;;;;;6.97;2.28;;;16.20;99.90;;;;;;5042088;28;20048;-80
2023/08/25 02:04:21;;;;;;;8.60;2.70;;;16.10;99.90;;;;;;5044623;28;20065;-80
2023/08/25 02:06:48;;;;;;;7.45;2.38;;;16.10;99.90;;;;;;5050189;28;20379;-79
2023/08/25 02:09:14;;;;;;;7.63;2.78;;;16.10;99.90;;;;;;5047145;28;20136;-78
2023/08/25 02:11:41;;;;;;;7.80;2.50;;;16.10;99.90;;;;;;5059789;28;20076;-80
2023/08/25 02:14:17;;;;;;;6.68;2.42;;;16.10;99.90;;;;;;5057000;28;20083;-80
2023/08/25 02:16:43;;;;;;;8.45;2.53;;;16.10;99.90;;;;;;5040941;28;20045;-80
2023/08/25 02:19:10;;;;;;;7.50;2.50;;;16.10;99.90;;;;;;5047487;28;20458;-80
2023/08/25 02:21:37;;;;;;;13.00;3.55;;;16.10;99.90;;;;;;5059542;28;20120;-79
2023/08/25 02:24:04;;;;;;;6.78;2.42;;;16.10;99.90;;;;;;5037654;28;20095;-79
2023/08/25 02:26:32;;;;;;;7.75;2.97;;;16.10;99.90;;;;;;5051329;28;20502;-79
2023/08/25 02:28:59;;;;;;;7.70;2.45;;;16.10;99.90;;;;;;5041812;28;20045;-80
2023/08/25 02:31:26;;;;;;;6.60;2.45;;;16.10;99.90;;;;;;5050186;28;20110;-81
2023/08/25 02:33:53;;;;;;;10.05;2.80;;;16.20;99.90;;;;;;5074202;28;20075;-81
2023/08/25 02:36:19;;;;;;;9.20;2.38;;;16.20;99.90;;;;;;5040050;28;20076;-81
2023/08/25 02:41:33;;;;;;;8.10;2.20;;;16.20;99.90;;;;;;5066367;28;20335;-79
2023/08/25 02:44:00;;;;;;;6.75;2.10;;;16.20;99.90;;;;;;5059992;28;20040;-79
2023/08/25 02:46:27;;;;;;;7.00;2.58;;;16.30;99.90;;;;;;5051846;28;20082;-79
2023/08/25 02:48:53;;;;;;;6.45;2.15;;;16.30;99.90;;;;;;5037022;28;20370;-79
2023/08/25 02:51:20;;;;;;;8.98;2.55;;;16.30;99.90;;;;;;5043086;28;20045;-80
2023/08/25 02:53:47;;;;;;;8.20;2.00;;;16.30;99.90;;;;;;5065032;28;20434;-80
2023/08/25 02:56:14;;;;;;;5.47;1.95;;;16.30;99.90;;;;;;5039632;28;20052;-80
2023/08/25 02:58:40;;;;;;;5.93;1.92;;;16.40;99.90;;;;;;5048992;28;20044;-79
2023/08/25 03:01:07;;;;;;;9.05;2.00;;;16.40;99.90;;;;;;5044370;28;20041;-80
2023/08/25 03:03:37;;;;;;;5.05;1.90;;;16.40;99.90;;;;;;5076704;28;20032;-80
2023/08/25 03:06:05;;;;;;;8.63;2.10;;;16.40;99.90;;;;;;5029163;28;20418;-80
2023/08/25 03:08:32;;;;;;;6.63;1.90;;;16.30;99.90;;;;;;5059398;28;20037;-78
2023/08/25 03:11:00;;;;;;;10.98;1.95;;;16.30;99.90;;;;;;5046727;28;20037;-80
2023/08/25 03:13:27;;;;;;;5.47;1.95;;;16.30;99.90;;;;;;5057028;28;20424;-80
2023/08/25 03:15:55;;;;;;;5.55;2.17;;;16.30;99.90;;;;;;5048018;28;20422;-79
2023/08/25 03:18:22;;;;;;;5.82;1.90;;;16.30;99.90;;;;;;5036859;28;20102;-80
2023/08/25 03:20:50;;;;;;;6.68;2.13;;;16.30;99.90;;;;;;5031896;28;20040;-80
2023/08/25 03:23:18;;;;;;;21.02;2.63;;;16.40;99.90;;;;;;5058845;28;20140;-80
2023/08/25 03:25:45;;;;;;;7.47;1.60;;;16.40;99.90;;;;;;5058896;28;20040;-80
2023/08/25 03:28:13;;;;;;;5.38;1.60;;;16.40;99.90;;;;;;5057316;28;20131;-78
2023/08/25 03:30:39;;;;;;;4.55;1.40;;;16.30;99.90;;;;;;5059051;28;20086;-79
2023/08/25 03:33:06;;;;;;;7.82;1.88;;;16.30;99.90;;;;;;5057961;28;20041;-80
2023/08/25 03:35:34;;;;;;;4.68;1.40;;;16.20;99.90;;;;;;5076131;28;20037;-80
2023/08/25 03:38:03;;;;;;;4.97;1.40;;;16.20;99.90;;;;;;5064808;28;20041;-81
2023/08/25 03:40:29;;;;;;;5.15;1.83;;;16.20;99.90;;;;;;5056012;28;20037;-78
2023/08/25 03:42:56;;;;;;;4.35;1.42;;;16.20;99.90;;;;;;5048500;28;20094;-80
2023/08/25 03:45:23;;;;;;;12.43;1.70;;;16.20;99.90;;;;;;5044547;28;20541;-80
2023/08/25 03:47:50;;;;;;;6.78;1.88;;;16.10;99.90;;;;;;5057593;28;20131;-80
2023/08/25 03:50:17;;;;;;;4.05;1.58;;;16.10;99.90;;;;;;5068456;28;20052;-81
2023/08/25 03:52:44;;;;;;;3.47;1.50;;;16.00;99.90;;;;;;5075134;28;20037;-80
2023/08/25 03:55:11;;;;;;;7.35;1.65;;;16.00;99.90;;;;;;5067602;28;20079;-80
2023/08/25 03:57:39;;;;;;;5.70;1.40;;;15.90;99.90;;;;;;5094994;28;20040;-80
2023/08/25 04:00:07;;;;;;;3.75;1.40;;;15.90;99.90;;;;;;5086904;28;20120;-80
2023/08/25 04:02:39;;;;;;;10.27;1.75;;;15.90;99.90;;;;;;5075343;28;20044;-79
2023/08/25 04:05:07;;;;;;;8.85;1.90;;;15.90;99.90;;;;;;5075727;28;20037;-80
2023/08/25 04:07:34;;;;;;;7.68;1.75;;;15.90;99.90;;;;;;5073741;28;20036;-81
2023/08/25 04:10:01;;;;;;;5.20;1.67;;;15.80;99.90;;;;;;5077702;28;20352;-80
2023/08/25 04:12:27;;;;;;;4.03;1.48;;;15.80;99.90;;;;;;5077667;28;20128;-78
2023/08/25 04:14:54;;;;;;;6.13;1.80;;;15.80;99.90;;;;;;5094981;28;20407;-79
2023/08/25 04:17:22;;;;;;;3.05;1.15;;;15.70;99.90;;;;;;5085978;28;20139;-80
2023/08/25 04:19:49;;;;;;;4.32;1.33;;;15.70;99.90;;;;;;5069576;28;20041;-78
2023/08/25 04:22:16;;;;;;;4.55;1.40;;;15.70;99.90;;;;;;5082061;28;20040;-79
2023/08/25 04:24:42;;;;;;;4.95;1.60;;;15.70;99.90;;;;;;5094724;28;20471;-80
2023/08/25 04:27:10;;;;;;;4.43;1.50;;;15.70;99.90;;;;;;5087566;28;20040;-80
2023/08/25 04:29:37;;;;;;;9.00;1.50;;;15.70;99.90;;;;;;5074489;28;20043;-79
2023/08/25 04:32:04;;;;;;;4.28;1.30;;;15.70;99.90;;;;;;5088685;28;20051;-81
2023/08/25 04:34:37;;;;;;;3.95;1.30;;;15.70;99.90;;;;;;5084925;28;20044;-79
2023/08/25 04:37:04;;;;;;;4.28;1.55;;;15.60;99.90;;;;;;5077540;28;20544;-79
2023/08/25 04:39:32;;;;;;;9.93;2.10;;;15.60;99.90;;;;;;5067303;28;20057;-78
2023/08/25 04:42:00;;;;;;;5.45;1.33;;;15.50;99.90;;;;;;5070372;28;20036;-81
2023/08/25 04:44:26;;;;;;;7.05;1.40;;;15.50;99.90;;;;;;5082544;28;20036;-78
2023/08/25 04:46:55;;;;;;;5.50;1.40;;;15.40;99.90;;;;;;5093253;28;20055;-79
2023/08/25 04:49:21;;;;;;;5.20;1.20;;;15.40;99.90;;;;;;5087498;28;20131;-79
2023/08/25 04:51:49;;;;;;;5.50;1.35;;;15.30;99.90;;;;;;5087202;28;20047;-80
2023/08/25 04:54:15;;;;;;;5.93;1.40;;;15.30;99.90;;;;;;5092808;28;20048;-79
2023/08/25 04:56:46;;;;;;;4.22;1.70;;;15.30;99.90;;;;;;5078464;28;20064;-79
2023/08/25 04:59:13;;;;;;;6.18;1.50;;;15.20;99.90;;;;;;5073931;28;20118;-81
2023/08/25 05:01:39;;;;;;;4.15;1.23;;;15.20;99.90;;;;;;5056437;28;20456;-80
2023/08/25 05:04:08;;;;;;;5.65;1.38;;;15.10;99.90;;;;;;5087031;28;20059;-80
2023/08/25 05:06:35;;;;;;;6.00;1.45;;;15.10;99.90;;;;;;5060293;28;20401;-79
2023/08/25 05:09:02;;;;;;;3.78;1.25;;;15.00;99.90;;;;;;5084963;28;20046;-79
2023/08/25 05:11:29;;;;;;;6.03;1.40;;;15.00;99.90;;;;;;5077174;28;20356;-79
2023/08/25 05:13:58;;;;;;;3.88;1.30;;;15.00;99.90;;;;;;5076381;28;20471;-79
2023/08/25 05:16:25;;;;;;;4.15;1.42;;;15.00;99.90;;;;;;5092176;28;20412;-78
2023/08/25 05:18:56;;;;;;;3.97;1.40;;;15.00;99.90;;;;;;5058893;28;20431;-81
2023/08/25 05:21:23;;;;;;;3.97;1.38;;;15.00;99.90;;;;;;5087211;28;20122;-81
2023/08/25 05:23:53;;;;;;;3.10;1.10;;;15.10;99.90;;;;;;5079724;28;20131;-79
2023/08/25 05:26:20;;;;;;;4.55;1.20;;;15.10;99.90;;;;;;5089137;28;20131;-80
2023/08/25 05:28:56;;;;;;;5.03;1.30;;;15.20;99.90;;;;;;5080566;28;20047;-80
2023/08/25 05:31:23;;;;;;;3.65;1.23;;;15.20;99.90;;;;;;5094127;28;20077;-79
2023/08/25 05:34:06;;;;;;;2.70;1.05;;;15.30;99.90;;;;;;5085486;28;20051;-80
2023/08/25 05:36:38;;;;;;;5.20;1.50;;;15.30;99.90;;;;;;5088565;28;20173;-80
2023/08/25 05:39:05;;;;;;;3.55;1.20;;;15.30;99.90;;;;;;5088331;28;20321;-80
2023/08/25 05:41:33;;;;;;;6.03;1.30;;;15.40;99.90;;;;;;5075788;28;20040;-80
2023/08/25 05:44:00;;;;;;;9.32;1.30;;;15.40;99.90;;;;;;5093045;28;20032;-80
2023/08/25 05:46:27;;;;;;;8.32;1.42;;;15.40;99.90;;;;;;5092636;28;20471;-80
2023/08/25 05:48:54;;;;;;;4.90;1.20;;;15.40;99.90;;;;;;5093606;28;20043;-79
2023/08/25 05:51:20;;;;;;;8.82;1.40;;;15.40;99.90;;;;;;5060278;28;20102;-79
2023/08/25 05:53:47;;;;;;;3.10;1.15;;;15.50;99.90;;;;;;5039666;28;20472;-79
2023/08/25 05:56:14;;;;;;;4.88;1.40;;;15.50;99.90;;;;;;5069185;28;20063;-79
2023/08/25 05:58:43;;;;;;;4.63;1.52;;;15.50;99.90;;;;;;5077690;28;20447;-79
2023/08/25 06:01:09;;;;;;;5.88;1.20;;;15.50;99.90;;;;;;5083303;28;20040;-80
2023/08/25 06:03:36;;;;;;;6.13;1.20;;;15.50;99.90;;;;;;5098286;28;20071;-79
2023/08/25 06:06:03;;;;;;;3.08;1.00;;;15.50;99.90;;;;;;5084296;28;20051;-78
2023/08/25 06:08:30;;;;;;;4.13;1.30;;;15.50;99.90;;;;;;5091124;28;20504;-81
2023/08/25 06:10:56;;;;;;;10.88;1.20;;;15.50;99.90;;;;;;5091160;28;20051;-78
2023/08/25 06:13:26;;;;;;;3.25;1.30;;;15.50;99.90;;;;;;5086813;28;20399;-79
2023/08/25 06:15:53;;;;;;;3.63;0.90;;;15.50;99.90;;;;;;5069208;28;20132;-80
2023/08/25 06:18:20;;;;;;;5.57;1.52;;;15.60;99.90;;;;;;5092126;28;20459;-78
2023/08/25 06:20:47;;;;;;;5.72;1.35;;;15.60;99.90;;;;;;5087368;28;20044;-78
2023/08/25 06:23:14;;;;;;;3.17;1.20;;;15.70;99.90;;;;;;5066276;28;20135;-79
2023/08/25 06:25:41;;;;;;;5.25;1.30;;;15.70;99.90;;;;;;5065473;28;20044;-78
2023/08/25 06:28:08;;;;;;;4.65;1.20;;;15.80;99.90;;;;;;5059260;28;20063;-79
2023/08/25 06:30:35;;;;;;;4.18;1.05;;;15.90;99.90;;;;;;5077638;28;20111;-78
2023/08/25 06:33:02;;;;;;;4.05;1.20;;;15.80;99.90;;;;;;5088856;28;20074;-78
2023/08/25 06:35:29;;;;;;;6.15;1.45;;;15.90;99.90;;;;;;5098101;28;20044;-79
2023/08/25 06:37:57;;;;;;;3.72;1.20;;;16.00;99.90;;;;;;5076661;28;20132;-79
2023/08/25 06:40:23;;;;;;;3.20;1.13;;;16.10;99.90;;;;;;5087851;28;20044;-82
2023/08/25 06:42:50;;;;;;;4.22;1.10;;;16.20;99.90;;;;;;5065764;28;20132;-82
2023/08/25 06:45:17;;;;;;;3.25;1.10;;;16.30;99.90;;;;;;5073457;28;20120;-81
2023/08/25 06:50:30;;;;;;;6.60;1.20;;;16.30;99.90;;;;;;5084487;28;20063;-79
2023/08/25 06:52:57;;;;;;;4.63;1.10;;;16.10;99.90;;;;;;5064848;28;20039;-80
2023/08/25 06:55:27;;;;;;;2.33;0.98;;;16.10;99.90;;;;;;5070950;28;20051;-79
2023/08/25 06:57:54;;;;;;;4.53;1.20;;;16.10;99.90;;;;;;5091021;28;20029;-79
2023/08/25 07:00:22;;;;;;;4.40;1.10;;;16.00;99.90;;;;;;5085662;28;20043;-81
2023/08/25 07:02:49;;;;;;;5.50;1.20;;;16.00;99.90;;;;;;5081266;28;20757;-80
2023/08/25 07:05:16;;;;;;;2.88;1.08;;;16.10;99.90;;;;;;5096864;28;20047;-79
2023/08/25 07:07:42;;;;;;;7.30;1.10;;;16.20;99.90;;;;;;5096330;28;20418;-80
2023/08/25 07:10:09;;;;;;;5.75;1.08;;;16.30;99.90;;;;;;5069294;28;20059;-78
2023/08/25 07:12:36;;;;;;;4.05;1.15;;;16.40;99.90;;;;;;5071716;28;20439;-79
2023/08/25 07:15:02;;;;;;;4.90;1.10;;;16.50;99.90;;;;;;5064340;28;20050;-78
2023/08/25 07:17:31;;;;;;;2.58;0.90;;;16.50;99.90;;;;;;5058309;28;20447;-80
2023/08/25 07:19:58;;;;;;;2.80;1.05;;;16.50;99.90;;;;;;5055645;28;20059;-78
2023/08/25 07:22:25;;;;;;;5.82;1.10;;;16.60;99.90;;;;;;5056148;28;20045;-80
2023/08/25 07:24:53;;;;;;;4.10;1.10;;;16.70;99.90;;;;;;5041023;28;20387;-80
2023/08/25 07:27:20;;;;;;;4.60;1.10;;;16.70;99.90;;;;;;5080760;28;20040;-79
2023/08/25 07:29:46;;;;;;;5.05;1.20;;;16.70;99.90;;;;;;5070089;28;20530;-80
2023/08/25 07:32:13;;;;;;;6.32;1.10;;;16.70;99.90;;;;;;5076128;28;20115;-81
2023/08/25 07:34:40;;;;;;;3.38;1.00;;;16.60;99.90;;;;;;5075114;28;20155;-81
2023/08/25 07:37:07;;;;;;;7.15;1.40;;;16.50;99.90;;;;;;5080145;28;20044;-80
2023/08/25 07:39:34;;;;;;;2.03;0.90;;;16.50;99.90;;;;;;5087707;28;20067;-81
2023/08/25 07:42:00;;;;;;;3.72;1.02;;;16.60;99.90;;;;;;5079834;28;20040;-79
2023/08/25 07:44:27;;;;;;;3.08;0.90;;;16.80;99.90;;;;;;5084652;28;20042;-79
2023/08/25 07:46:54;;;;;;;2.88;1.10;;;17.10;99.90;;;;;;5057887;28;20579;-80
2023/08/25 07:49:21;;;;;;;5.45;1.15;;;17.10;99.90;;;;;;5076496;28;20065;-82
2023/08/25 07:51:47;;;;;;;4.13;0.90;;;17.10;99.90;;;;;;5072010;28;20048;-79
2023/08/25 07:54:14;;;;;;;2.53;0.90;;;17.20;99.90;;;;;;5073755;28;20119;-81
2023/08/25 07:56:43;;;;;;;1.90;0.90;;;17.40;99.90;;;;;;5063232;28;20332;-80
2023/08/25 07:59:10;;;;;;;2.85;1.00;;;17.50;99.90;;;;;;5075907;28;20037;-83
2023/08/25 08:01:36;;;;;;;2.08;1.00;;;17.50;99.90;;;;;;5051705;28;20049;-81
2023/08/25 08:04:03;;;;;;;2.60;1.00;;;17.60;99.90;;;;;;5049781;28;20444;-81
2023/08/25 08:06:33;;;;;;;1.48;0.73;;;17.70;99.90;;;;;;5060677;28;20029;-79
2023/08/25 08:09:00;;;;;;;4.43;1.55;;;17.70;99.90;;;;;;5057946;28;20033;-80
2023/08/25 08:11:27;;;;;;;2.65;0.90;;;17.50;99.90;;;;;;5075451;28;20466;-81
2023/08/25 08:13:53;;;;;;;3.15;0.90;;;17.60;99.90;;;;;;5065167;28;20440;-82
2023/08/25 08:16:20;;;;;;;6.50;1.10;;;17.70;99.90;;;;;;5037499;28;20144;-82
2023/08/25 08:18:47;;;;;;;2.50;1.00;;;17.80;99.90;;;;;;5067859;28;20048;-83
2023/08/25 08:21:14;;;;;;;4.40;0.98;;;17.80;99.90;;;;;;5074776;28;20102;-83
2023/08/25 08:23:40;;;;;;;1.80;0.65;;;17.90;99.90;;;;;;5053709;28;20123;-82
2023/08/25 08:26:07;;;;;;;4.25;0.95;;;17.80;99.90;;;;;;5057191;28;20127;-83
2023/08/25 08:31:20;;;;;;;8.20;1.33;;;18.20;99.90;;;;;;5045202;28;20041;-85
2023/08/25 08:33:49;;;;;;;2.88;0.90;;;18.50;99.90;;;;;;5042453;28;20040;-81
2023/08/25 08:36:17;;;;;;;3.58;1.00;;;18.80;99.90;;;;;;5057257;28;20074;-77
2023/08/25 08:41:29;;;;;;;5.03;0.88;;;19.00;99.90;;;;;;5074045;28;20083;-79
2023/08/25 08:43:56;;;;;;;3.15;1.10;;;19.00;99.90;;;;;;5060552;28;20039;-80
2023/08/25 08:46:23;;;;;;;5.70;1.20;;;18.80;99.90;;;;;;5063850;28;20120;-81
2023/08/25 08:48:50;;;;;;;4.10;0.90;;;18.90;99.90;;;;;;5057344;28;20049;-79
2023/08/25 08:51:17;;;;;;;3.90;1.38;;;18.80;99.90;;;;;;5064908;28;20046;-79
2023/08/25 08:53:47;;;;;;;5.18;1.00;;;18.60;99.90;;;;;;5055670;28;20075;-80
2023/08/25 08:56:15;;;;;;;3.75;1.02;;;18.50;99.90;;;;;;5074551;28;20040;-81
2023/08/25 08:58:42;;;;;;;4.65;0.98;;;18.60;99.90;;;;;;5074863;28;20115;-79
2023/08/25 09:01:10;;;;;;;5.78;1.15;;;18.70;99.90;;;;;;5073711;28;20132;-81
2023/08/25 09:03:36;;;;;;;2.45;0.75;;;18.60;99.90;;;;;;5074304;28;20052;-80
2023/08/25 09:06:03;;;;;;;3.75;1.10;;;18.70;99.90;;;;;;5074694;28;20044;-81
2023/08/25 09:08:30;;;;;;;5.18;0.90;;;19.00;99.90;;;;;;5057351;28;20486;-82
2023/08/25 09:10:57;;;;;;;2.35;0.90;;;19.30;99.90;;;;;;5070592;28;20128;-81
2023/08/25 09:13:24;;;;;;;7.55;1.30;;;19.50;99.90;;;;;;5050841;28;20136;-82
2023/08/25 09:15:50;;;;;;;4.82;1.08;;;19.60;99.90;;;;;;5065725;28;20044;-80
2023/08/25 09:18:19;;;;;;;3.72;1.08;;;19.70;99.90;;;;;;5060524;28;20068;-82
2023/08/25 09:20:46;;;;;;;6.15;1.65;;;20.00;99.90;;;;;;5073103;28;20051;-80
2023/08/25 09:23:12;;;;;;;4.15;1.05;;;20.20;99.90;;;;;;5051883;28;20131;-83
2023/08/25 09:25:39;;;;;;;6.07;1.48;;;20.30;99.90;;;;;;5073570;28;20044;-81
2023/08/25 09:28:06;;;;;;;4.28;1.10;;;20.40;99.90;;;;;;5056417;28;20048;-81
2023/08/25 09:30:33;;;;;;;2.65;1.05;;;20.70;99.90;;;;;;5054471;28;20048;-82
2023/08/25 09:33:00;;;;;;;4.70;1.27;;;21.00;99.90;;;;;;5062556;28;20460;-80
2023/08/25 09:35:27;;;;;;;5.30;0.90;;;21.10;99.90;;;;;;5074049;28;20048;-81
2023/08/25 09:37:54;;;;;;;11.77;1.75;;;21.20;99.90;;;;;;5072806;28;20047;-81
2023/08/25 09:40:21;;;;;;;3.13;0.90;;;21.40;99.90;;;;;;5039132;28;20072;-80
2023/08/25 09:42:48;;;;;;;6.05;1.20;;;21.40;99.90;;;;;;5044611;28;20430;-80
2023/08/25 09:45:14;;;;;;;3.25;1.10;;;21.30;99.90;;;;;;5055402;28;20490;-83
2023/08/25 09:47:42;;;;;;;5.15;1.10;;;21.40;99.90;;;;;;5060365;28;20135;-81
2023/08/25 09:50:09;;;;;;;2.20;0.90;;;21.60;99.90;;;;;;5081264;28;20044;-81
2023/08/25 09:52:35;;;;;;;2.95;1.17;;;21.70;99.90;;;;;;5050085;28;20075;-80
2023/08/25 09:55:02;;;;;;;6.15;1.17;;;21.60;99.90;;;;;;5059678;28;20068;-81
2023/08/25 09:57:29;;;;;;;4.15;1.10;;;21.70;99.90;;;;;;5041396;28;20041;-88
2023/08/25 09:59:55;;;;;;;5.40;1.25;;;21.60;99.90;;;;;;5059429;28;20098;-80
2023/08/25 10:02:22;;;;;;;6.85;1.33;;;21.70;99.90;;;;;;5074078;28;20097;-81
2023/08/25 10:04:49;;;;;;;4.05;1.00;;;22.00;99.90;;;;;;5082447;28;20552;-81
2023/08/25 10:10:03;;;;;;;9.85;1.52;;;22.20;99.90;;;;;;5043356;28;20451;-86
2023/08/25 10:12:30;;;;;;;4.88;0.90;;;22.50;99.90;;;;;;5047752;28;20455;-81
2023/08/25 10:14:57;;;;;;;4.25;1.10;;;22.30;99.90;;;;;;5084011;28;20550;-84
2023/08/25 10:20:12;;;;;;;8.15;1.27;;;22.20;99.90;;;;;;5074208;28;20054;-87
2023/08/25 10:22:39;;;;;;;4.55;1.20;;;22.40;99.90;;;;;;5093979;28;20135;-84
2023/08/25 10:25:06;;;;;;;6.38;1.20;;;22.50;99.90;;;;;;5059125;28;20033;-84
2023/08/25 10:27:33;;;;;;;4.60;1.20;;;22.80;99.90;;;;;;5062100;28;20440;-81
2023/08/25 10:30:00;;;;;;;5.13;1.33;;;22.90;99.90;;;;;;5069117;28;20072;-80
2023/08/25 10:32:27;;;;;;;7.38;1.17;;;23.20;99.90;;;;;;5054047;28;20068;-82
2023/08/25 10:34:53;;;;;;;3.22;1.08;;;23.40;99.90;;;;;;5053065;28;20414;-83
2023/08/25 10:40:10;;;;;;;6.93;1.52;;;23.30;99.90;;;;;;5076147;28;20557;-84
2023/08/25 10:42:36;;;;;;;6.65;1.20;;;23.30;99.90;;;;;;5085367;28;20060;-84
2023/08/25 10:45:03;;;;;;;5.13;1.25;;;23.40;99.90;;;;;;5063898;28;20052;-85
2023/08/25 10:47:31;;;;;;;4.93;1.52;;;23.40;99.90;;;;;;5065661;28;20066;-82
2023/08/25 10:49:58;;;;;;;4.13;1.10;;;22.80;99.90;;;;;;5067283;28;20494;-82
2023/08/25 10:52:25;;;;;;;5.22;1.80;;;23.20;99.90;;;;;;5094894;28;20451;-80
2023/08/25 10:54:52;;;;;;;4.30;1.23;;;23.10;99.90;;;;;;5075275;28;20040;-83
2023/08/25 10:59:51;;;;;;;4.68;1.13;;;24.00;99.90;;;;;;5082346;28;20161;-83
2023/08/25 11:02:18;;;;;;;6.32;1.40;;;25.00;99.90;;;;;;5093170;28;20047;-80
2023/08/25 11:04:45;;;;;;;5.75;1.52;;;25.50;99.90;;;;;;5093346;28;20040;-83
2023/08/25 11:07:13;;;;;;;5.97;1.50;;;25.10;99.90;;;;;;5082125;28;20123;-83
2023/08/25 11:09:44;;;;;;;5.28;1.40;;;24.80;99.90;;;;;;5079085;28;20463;-81
2023/08/25 11:12:11;;;;;;;6.57;1.40;;;24.80;99.90;;;;;;5096077;28;20046;-81
2023/08/25 11:14:38;;;;;;;6.15;1.40;;;24.60;99.90;;;;;;5080771;28;20442;-82
2023/08/25 11:17:07;;;;;;;8.25;1.58;;;24.40;99.90;;;;;;5076023;28;20375;-83
2023/08/25 11:19:36;;;;;;;5.80;1.60;;;24.60;99.90;;;;;;5076166;28;20076;-82
2023/08/25 11:22:03;;;;;;;4.82;1.30;;;24.50;99.90;;;;;;5107507;28;20508;-83
2023/08/25 11:24:30;;;;;;;5.30;1.48;;;24.10;99.90;;;;;;5095675;28;20036;-85
2023/08/25 11:26:57;;;;;;;5.90;1.70;;;23.80;99.90;;;;;;5077858;28;20040;-80
2023/08/25 11:29:24;;;;;;;4.15;1.30;;;23.40;99.90;;;;;;5091093;28;20067;-83
2023/08/25 11:31:51;;;;;;;6.55;1.40;;;23.90;99.90;;;;;;5079954;28;20492;-80
2023/08/25 11:34:17;;;;;;;11.77;1.88;;;24.20;99.90;;;;;;5085908;28;20079;-81
2023/08/25 11:36:44;;;;;;;5.60;1.80;;;24.50;99.90;;;;;;5092898;28;20123;-84
2023/08/25 11:39:11;;;;;;;4.32;1.50;;;25.10;99.90;;;;;;5071586;28;20456;-84
2023/08/25 11:41:37;;;;;;;6.70;1.70;;;25.70;99.90;;;;;;5081560;28;20389;-82
2023/08/25 11:44:05;;;;;;;6.40;1.60;;;26.00;99.90;;;;;;5094510;28;20044;-83
2023/08/25 11:46:31;;;;;;;7.25;1.60;;;26.30;99.90;;;;;;5095470;28;20402;-83
2023/08/25 11:48:58;;;;;;;5.55;1.40;;;26.90;99.90;;;;;;5095306;28;20059;-82
2023/08/25 11:51:26;;;;;;;6.43;1.70;;;27.40;99.90;;;;;;5082031;28;20037;-81
2023/08/25 11:53:52;;;;;;;4.82;1.33;;;27.60;99.90;;;;;;5057863;28;20418;-81
2023/08/25 11:56:19;;;;;;;6.32;1.67;;;26.90;99.40;;;;;;5094638;28;20401;-80
2023/08/25 11:58:50;;;;;;;9.95;1.58;;;26.60;99.90;;;;;;5085871;28;20098;-80
2023/08/25 12:01:17;;;;;;;5.07;1.33;;;26.20;99.10;;;;;;5089314;28;20068;-81
2023/08/25 12:03:44;;;;;;;7.82;1.58;;;26.30;98.60;;;;;;5058489;28;20066;-80
2023/08/25 12:06:11;;;;;;;5.22;1.40;;;26.70;99.90;;;;;;5087743;28;20119;-81
2023/08/25 12:08:39;;;;;;;5.82;1.55;;;26.70;97.40;;;;;;5063360;28;20123;-82
2023/08/25 12:11:06;;;;;;;4.65;1.20;;;26.60;97.60;;;;;;5090069;28;20442;-79
2023/08/25 12:13:32;;;;;;;6.03;1.20;;;26.60;95.60;;;;;;5061048;28;20040;-82
2023/08/25 12:15:59;;;;;;;3.38;1.30;;;26.80;96.20;;;;;;5058150;28;20068;-80
2023/08/25 12:18:27;;;;;;;4.60;1.23;;;27.20;95.90;;;;;;5076528;28;20040;-82
2023/08/25 12:20:54;;;;;;;3.75;1.10;;;27.30;95.30;;;;;;5074246;28;20045;-80
2023/08/25 12:23:20;;;;;;;7.47;1.40;;;27.20;94.00;;;;;;5060641;28;20116;-82
2023/08/25 12:25:47;;;;;;;5.13;1.40;;;27.80;95.20;;;;;;5077833;28;20041;-80
2023/08/25 12:28:15;;;;;;;3.70;1.15;;;28.10;93.70;;;;;;5054671;28;20367;-83
2023/08/25 12:30:42;;;;;;;4.25;1.10;;;28.20;93.50;;;;;;5055708;28;20103;-80
2023/08/25 12:33:09;;;;;;;4.57;1.10;;;28.10;92.10;;;;;;5054535;28;20120;-83
2023/08/25 12:35:36;;;;;;;4.20;1.20;;;27.20;91.50;;;;;;5080519;28;20044;-83
2023/08/25 12:38:03;;;;;;;4.90;1.20;;;27.10;90.30;;;;;;5077810;28;20119;-83
2023/08/25 12:40:30;;;;;;;3.80;1.10;;;27.20;90.40;;;;;;5080158;28;20366;-81
2023/08/25 12:42:56;;;;;;;2.40;0.90;;;27.80;91.00;;;;;;5057734;28;20396;-82
2023/08/25 12:45:23;;;;;;;2.53;0.98;;;27.60;87.70;;;;;;5039830;28;20048;-79
2023/08/25 12:47:52;;;;;;;3.60;1.10;;;27.70;89.50;;;;;;5078138;28;20043;-80
2023/08/25 12:50:19;;;;;;;6.90;1.00;;;27.60;90.50;;;;;;5055072;28;20049;-81
2023/08/25 12:52:46;;;;;;;4.90;1.20;;;27.80;88.80;;;;;;5055185;28;20040;-82
2023/08/25 12:55:14;;;;;;;3.75;1.02;;;28.00;89.90;;;;;;5054966;28;20186;-82
2023/08/25 12:57:49;;;;;;;1.70;0.90;;;28.10;87.40;;;;;;5069059;28;20040;-83
2023/08/25 13:00:16;;;;;;;2.78;1.00;;;28.70;88.80;;;;;;5063287;28;20106;-82
2023/08/25 13:02:43;;;;;;;6.80;1.10;;;28.80;89.20;;;;;;5075196;28;20493;-83
2023/08/25 13:05:10;;;;;;;3.55;1.10;;;29.00;87.10;;;;;;5074800;28;20509;-80
2023/08/25 13:07:37;;;;;;;4.20;1.10;;;29.30;90.00;;;;;;5056512;28;20356;-81